24h
KLIENDITUGI:
Saartelennuliinid: +372 58856336 (24/7)
Estairi piletikassa lennujaamas:
+372 6058887; +372 55603687

13.03.2018 õhtune Transaviabaltika lend KTB676 kell 17:00 (kohalik aeg) Tallinn - Kärdla väljalend ja KTB677 kell 17:45 Kärdla – Tallinn väljalend on tühistatud. Lennu tühistamise põhjustab väga madal pilvisus Kärdla lennujaamas. Kõikidele reisijatele tagastatakse piletiraha.

 

Lennuilm EEKA Kärdla lennuväli FCEO32 EETN 131300

TAF EEKA 131300Z 1314/1320 15010KT 1500 RADZ BR OVC003

TEMPO 1314/1320 0700 FG VV001=

METAR EEKA 131250Z 16008KT 1000 BR OVC002 03/// Q0990=
Kuupäev: 
13/03/2018